Gardner, MA

11:53 AM EDT on April 25, 2017 (GMT -0400)
City of Gardner Greenwood st. | | Change Station

Elev 1089 ft 42.57 °N, 72.00 °W | Updated 5 seconds ago

Overcast
Overcast
46.8 °F
Feels Like 47 °F
N
2.9
Wind Variable Wind from SE
Gusts 4.9 mph

Today
High -- | Low -- °F
--% Chance of Precip.
Yesterday
High -- | Low -- °F
Precip. -- in
Pressure 30.29 in
Visibility 10.0 miles
Clouds Overcast 2700 ft
Windchill 47 °F
Dew Point 43 °F
Humidity 87%
Rainfall 0.07 in
Snow Depth Not available.
5:50 AM 7:41 PM
Waning Crescent, 1% visible
METAR KFIT 251552Z AUTO 06009G16KT 020V080 10SM OVC027 11/05 A3028 RMK AO2 SLP257 T01110050
Pressure 30.29 in
Visibility 10.0 miles
Clouds Overcast 2700 ft
Windchill 47 °F
Dew Point 43 °F
Humidity 87%
Rainfall 0.07 in
Snow Depth Not available.
5:50 AM 7:41 PM
Waning Crescent, 1% visible
METAR KFIT 251552Z AUTO 06009G16KT 020V080 10SM OVC027 11/05 A3028 RMK AO2 SLP257 T01110050

Get Severe Weather Alerts

Thanks for signing up!

Be on the lookout for a verification email in your inbox.

You'll start receiving the daily forecast at 8 AM.

×

10-Day Weather Forecast

Almanac

Astronomy

Apr. 25, 2017 Rise Set
Actual Time
Civil Twilight
Nautical Twilight
Astronomical Twilight
Moon
Length of Visible Light
Length of Day
Tomorrow will be .
, % of the Moon is Illuminated

Today's Extremes

State Highs State Lows

Community

WunderPhotos

WunderBlog® & News

Nearby

Air Quality

  Air Quality AQ Index Pollutant
Not available.

Snow Depth

Station Depth Elevation

Earthquake Activity

City Distance Mag. Time & Date
Minimum magnitude displayed is 2.5.

Coastal Water Temperatures

Place Temperature

Stations

Nearby Weather Stations

Station Location Temp. Windchill Dew Point Humidity Wind Precip. Elev Updated Type
                   

Watches & Warnings

There are currently no watches in effect.